createdAt,value
2019-05-16T00:02:29.680Z,14.53
2019-05-16T00:05:00.499Z,13.32
2019-05-16T00:07:31.092Z,13.13
2019-05-16T00:10:02.208Z,14.00
2019-05-16T00:12:33.239Z,9.28
2019-05-16T00:15:03.905Z,8.80
2019-05-16T00:17:37.962Z,7.58
2019-05-16T00:20:10.486Z,8.25
2019-05-16T00:22:40.963Z,14.18
2019-05-16T00:25:12.027Z,9.50
2019-05-16T00:27:42.892Z,11.88
2019-05-16T00:30:13.730Z,10.48
2019-05-16T00:32:44.426Z,9.23
2019-05-16T00:35:15.233Z,9.53
2019-05-16T00:37:48.142Z,14.20
2019-05-16T00:40:18.811Z,8.98
2019-05-16T00:42:49.781Z,10.98
2019-05-16T00:45:20.186Z,10.05
2019-05-16T00:47:50.585Z,11.20
2019-05-16T00:50:21.149Z,9.63
2019-05-16T00:52:52.023Z,12.90
2019-05-16T00:55:22.860Z,12.15
2019-05-16T00:57:54.121Z,12.13
2019-05-16T01:00:45.008Z,10.18
2019-05-16T01:03:15.665Z,9.75
2019-05-16T01:05:48.113Z,14.18
2019-05-16T01:08:19.034Z,10.75
2019-05-16T01:10:51.562Z,16.45
2019-05-16T01:13:22.672Z,12.53
2019-05-16T01:15:53.401Z,14.38
2019-05-16T01:18:24.347Z,10.93
2019-05-16T01:20:55.273Z,12.25
2019-05-16T01:23:25.680Z,14.28
2019-05-16T01:25:58.633Z,13.48
2019-05-16T01:28:28.553Z,14.45
2019-05-16T01:30:59.360Z,12.20
2019-05-16T01:33:30.145Z,11.43
2019-05-16T01:36:00.729Z,15.93
2019-05-16T01:38:31.755Z,12.07
2019-05-16T01:41:02.236Z,13.85
2019-05-16T01:43:33.007Z,13.05
2019-05-16T01:46:03.733Z,16.45
2019-05-16T01:48:34.522Z,13.48
2019-05-16T01:51:05.195Z,14.18
2019-05-16T01:53:35.909Z,13.72
2019-05-16T01:56:08.438Z,12.93
2019-05-16T01:58:38.769Z,14.80
2019-05-16T02:01:13.405Z,15.32
2019-05-16T02:04:02.063Z,14.78
2019-05-16T02:06:32.835Z,16.17
2019-05-16T02:09:03.533Z,14.65
2019-05-16T02:11:34.354Z,15.78
2019-05-16T02:14:05.748Z,15.48
2019-05-16T02:16:38.347Z,15.90
2019-05-16T02:19:08.762Z,17.52
2019-05-16T02:21:39.523Z,22.48
2019-05-16T02:24:09.939Z,25.23
2019-05-16T02:26:40.392Z,26.87
2019-05-16T02:29:13.757Z,25.85
2019-05-16T02:31:43.196Z,22.93
2019-05-16T02:34:13.988Z,22.13
2019-05-16T02:36:44.666Z,23.45
2019-05-16T02:39:15.727Z,20.57
2019-05-16T02:41:46.461Z,28.00
2019-05-16T02:44:17.143Z,26.15
2019-05-16T02:46:50.696Z,29.95
2019-05-16T02:49:21.626Z,27.05
2019-05-16T02:51:52.806Z,25.55
2019-05-16T02:54:23.701Z,31.37
2019-05-16T02:56:54.780Z,24.30
2019-05-16T02:59:25.703Z,33.10
2019-05-16T03:01:56.691Z,37.33
2019-05-16T03:04:30.059Z,29.85
2019-05-16T03:07:00.825Z,32.85
2019-05-16T03:09:33.643Z,30.65
2019-05-16T03:12:05.028Z,33.92
2019-05-16T03:14:37.416Z,33.42
2019-05-16T03:17:11.225Z,29.72
2019-05-16T03:19:41.922Z,27.55
2019-05-16T03:22:15.425Z,31.60
2019-05-16T03:24:46.372Z,28.15
2019-05-16T03:27:17.390Z,34.95
2019-05-16T03:29:50.674Z,31.73
2019-05-16T03:32:24.147Z,34.40
2019-05-16T03:34:54.636Z,33.92
2019-05-16T03:37:25.296Z,28.52
2019-05-16T03:39:56.296Z,33.92
2019-05-16T03:42:27.635Z,29.00
2019-05-16T03:45:01.590Z,32.58
2019-05-16T03:47:31.321Z,29.57
2019-05-16T03:50:02.524Z,30.55
2019-05-16T03:52:33.509Z,27.75
2019-05-16T03:55:04.350Z,24.87
2019-05-16T03:57:35.220Z,26.68
2019-05-16T04:00:11.388Z,35.30
2019-05-16T04:02:42.054Z,24.05
2019-05-16T04:05:13.828Z,26.23
2019-05-16T04:07:45.386Z,22.82
2019-05-16T04:10:16.353Z,26.75
2019-05-16T04:12:47.141Z,25.30
2019-05-16T04:15:21.371Z,28.75
2019-05-16T04:17:51.232Z,29.95
2019-05-16T04:20:22.435Z,27.87
2019-05-16T04:22:53.265Z,32.98
2019-05-16T04:25:24.404Z,33.73
2019-05-16T04:27:55.375Z,31.77
2019-05-16T04:30:31.014Z,36.10
2019-05-16T04:33:01.937Z,34.98
2019-05-16T04:35:31.999Z,37.38
2019-05-16T04:38:03.014Z,33.60
2019-05-16T04:40:34.029Z,35.38
2019-05-16T04:43:25.847Z,34.05
2019-05-16T04:45:56.858Z,41.90
2019-05-16T04:48:30.719Z,37.53
2019-05-16T04:51:01.321Z,33.83
2019-05-16T04:53:32.913Z,33.88
2019-05-16T04:56:03.633Z,33.78
2019-05-16T04:58:34.712Z,28.00
2019-05-16T05:01:05.590Z,34.58
2019-05-16T05:03:36.734Z,32.13
2019-05-16T05:06:07.869Z,37.10
2019-05-16T05:08:50.570Z,33.98
2019-05-16T05:11:14.573Z,34.48
2019-05-16T05:13:45.697Z,36.58
2019-05-16T05:16:23.965Z,36.55
2019-05-16T05:18:54.833Z,37.85
2019-05-16T05:21:25.969Z,38.90
2019-05-16T05:23:56.946Z,39.08
2019-05-16T05:26:30.427Z,33.08
2019-05-16T05:29:00.368Z,34.88
2019-05-16T05:31:35.040Z,31.93
2019-05-16T05:34:03.718Z,35.92
2019-05-16T05:36:34.463Z,32.38
2019-05-16T05:39:11.820Z,37.95
2019-05-16T05:41:40.112Z,34.80
2019-05-16T05:44:11.047Z,30.35
2019-05-16T05:46:42.080Z,35.17
2019-05-16T05:49:12.943Z,35.52
2019-05-16T05:51:43.981Z,40.90
2019-05-16T05:54:14.906Z,38.23
2019-05-16T05:59:35.596Z,34.00
2019-05-16T06:04:55.649Z,33.73
2019-05-16T06:07:26.565Z,34.43
2019-05-16T06:10:00.196Z,38.90
2019-05-16T06:12:31.173Z,35.85
2019-05-16T06:15:07.413Z,35.63
2019-05-16T06:17:34.966Z,34.03
2019-05-16T06:20:06.665Z,34.25
2019-05-16T06:22:37.573Z,34.20
2019-05-16T06:25:13.084Z,34.73
2019-05-16T06:27:40.928Z,36.98
2019-05-16T06:33:04.191Z,36.88
2019-05-16T06:35:35.446Z,42.15
2019-05-16T06:38:06.517Z,35.85
2019-05-16T06:40:37.558Z,38.53
2019-05-16T06:43:10.784Z,38.58
2019-05-16T06:45:41.337Z,35.03
2019-05-16T06:48:12.189Z,38.75
2019-05-16T06:50:43.163Z,36.70
2019-05-16T06:53:14.213Z,44.08
2019-05-16T06:55:45.076Z,36.25
2019-05-16T06:58:16.305Z,35.25
2019-05-16T07:00:51.631Z,36.45
2019-05-16T07:03:20.390Z,34.48
2019-05-16T07:05:51.960Z,35.58
2019-05-16T07:08:24.555Z,34.00
2019-05-16T07:10:55.601Z,35.33
2019-05-16T07:13:26.552Z,36.88
2019-05-16T07:15:57.572Z,42.50
2019-05-16T07:18:31.077Z,36.50
2019-05-16T07:21:01.593Z,38.02
2019-05-16T07:23:34.125Z,40.52
2019-05-16T07:26:05.206Z,40.67
2019-05-16T07:28:36.224Z,38.58
2019-05-16T07:31:17.489Z,40.73
2019-05-16T07:33:40.662Z,39.92
2019-05-16T07:36:11.874Z,36.85
2019-05-16T07:38:42.711Z,38.15
2019-05-16T07:41:14.107Z,30.92
2019-05-16T07:43:45.191Z,38.35
2019-05-16T07:46:16.842Z,33.18
2019-05-16T07:48:47.760Z,33.10
2019-05-16T07:51:20.505Z,34.03
2019-05-16T07:53:51.390Z,37.75
2019-05-16T07:56:22.476Z,29.77
2019-05-16T07:58:53.599Z,38.15
2019-05-16T08:01:24.475Z,35.45
2019-05-16T08:03:55.433Z,32.93
2019-05-16T08:06:26.731Z,33.33
2019-05-16T08:09:00.024Z,37.42
2019-05-16T08:11:30.584Z,31.97
2019-05-16T08:14:01.932Z,32.40
2019-05-16T08:16:33.013Z,30.08
2019-05-16T08:19:04.437Z,33.35
2019-05-16T08:21:35.420Z,31.35
2019-05-16T08:24:07.969Z,27.77
2019-05-16T08:26:42.944Z,28.57
2019-05-16T08:29:13.493Z,29.48
2019-05-16T08:31:43.418Z,25.30
2019-05-16T08:34:14.767Z,32.25
2019-05-16T08:36:45.507Z,27.10
2019-05-16T08:39:16.590Z,31.15
2019-05-16T08:41:51.905Z,24.60
2019-05-16T08:44:21.660Z,27.98
2019-05-16T08:46:57.825Z,25.40
2019-05-16T08:49:25.481Z,21.85
2019-05-16T08:51:56.494Z,28.60
2019-05-16T08:54:27.287Z,23.45
2019-05-16T08:57:17.149Z,24.00
2019-05-16T08:59:33.945Z,20.85
2019-05-16T09:02:03.750Z,25.72
2019-05-16T09:04:34.803Z,23.05
2019-05-16T09:07:05.819Z,23.92
2019-05-16T09:09:44.059Z,23.77
2019-05-16T09:12:09.083Z,24.27
2019-05-16T09:14:40.877Z,20.27
2019-05-16T09:17:12.469Z,21.77
2019-05-16T09:19:43.770Z,24.20
2019-05-16T09:22:17.540Z,29.98
2019-05-16T09:24:48.171Z,21.75
2019-05-16T09:37:09.795Z,22.50
2019-05-16T09:39:40.833Z,22.58
2019-05-16T09:42:11.796Z,22.55
2019-05-16T09:44:42.838Z,20.40
2019-05-16T09:47:13.952Z,17.87
2019-05-16T09:49:47.303Z,21.80
2019-05-16T09:52:17.483Z,19.07
2019-05-16T09:54:48.414Z,22.30
2019-05-16T09:57:19.415Z,20.88
2019-05-16T09:59:50.367Z,18.73
2019-05-16T10:02:21.489Z,21.42
2019-05-16T10:04:52.405Z,21.77
2019-05-16T10:07:27.991Z,24.30
2019-05-16T10:09:57.185Z,18.52
2019-05-16T10:12:28.018Z,18.70
2019-05-16T10:14:59.813Z,25.62
2019-05-16T10:17:31.215Z,19.35
2019-05-16T10:20:02.305Z,17.20
2019-05-16T10:22:53.891Z,21.05
2019-05-16T10:25:27.441Z,15.08
2019-05-16T10:27:57.533Z,19.17
2019-05-16T10:30:29.298Z,16.62
2019-05-16T10:33:01.011Z,17.52
2019-05-16T10:35:31.942Z,20.05
2019-05-16T10:38:03.015Z,20.55
2019-05-16T10:40:36.614Z,21.30
2019-05-16T10:43:07.091Z,16.50
2019-05-16T10:45:40.273Z,18.62
2019-05-16T10:48:11.348Z,21.17
2019-05-16T10:50:42.703Z,19.90
2019-05-16T10:53:33.591Z,22.48
2019-05-16T10:55:47.722Z,25.02
2019-05-16T10:58:35.552Z,22.55
2019-05-16T11:01:15.123Z,21.37
2019-05-16T11:03:23.649Z,19.15
2019-05-16T11:06:02.965Z,21.17
2019-05-16T11:08:26.354Z,17.75
2019-05-16T11:10:57.332Z,21.25
2019-05-16T11:13:28.198Z,23.22
2019-05-16T11:15:59.053Z,21.35
2019-05-16T11:18:29.970Z,21.73
2019-05-16T11:21:01.008Z,26.20
2019-05-16T11:23:32.108Z,21.45
2019-05-16T11:26:03.107Z,26.05
2019-05-16T11:28:36.494Z,25.02
2019-05-16T11:31:07.605Z,24.77
2019-05-16T11:33:38.151Z,20.65
2019-05-16T11:36:12.670Z,26.00
2019-05-16T11:38:42.915Z,21.37
2019-05-16T11:41:13.744Z,26.45
2019-05-16T11:43:44.570Z,23.70
2019-05-16T11:46:15.498Z,23.80
2019-05-16T11:48:48.654Z,23.83
2019-05-16T11:51:18.905Z,25.75
2019-05-16T11:53:49.691Z,28.52
2019-05-16T12:23:18.399Z,32.93
2019-05-16T12:25:49.580Z,40.85
2019-05-16T12:28:20.258Z,35.50
2019-05-16T12:30:51.205Z,39.00
2019-05-16T12:33:22.131Z,38.23
2019-05-16T12:35:53.116Z,39.40
2019-05-16T12:38:24.186Z,34.55
2019-05-16T12:40:56.544Z,32.73
2019-05-16T12:43:43.688Z,37.33
2019-05-16T12:45:59.560Z,31.00
2019-05-16T12:48:30.277Z,35.58
2019-05-16T12:51:01.007Z,35.28
2019-05-16T12:53:32.336Z,29.30
2019-05-16T12:58:53.263Z,31.00
2019-05-16T13:01:30.449Z,30.55
2019-05-16T13:03:56.323Z,31.17
2019-05-16T13:06:27.983Z,31.10
2019-05-16T13:08:58.781Z,28.75
2019-05-16T13:11:29.706Z,27.42
2019-05-16T13:14:06.587Z,28.05
2019-05-16T13:16:32.670Z,27.77
2019-05-16T13:19:03.498Z,27.60
2019-05-16T13:21:34.326Z,27.82
2019-05-16T13:24:06.906Z,25.82
2019-05-16T13:26:38.904Z,35.58
2019-05-16T13:29:11.382Z,33.13
2019-05-16T13:31:42.307Z,32.53
2019-05-16T13:34:13.181Z,33.83
2019-05-16T13:36:47.216Z,38.58
2019-05-16T13:39:17.037Z,34.35
2019-05-16T13:41:48.278Z,31.65
2019-05-16T13:44:22.780Z,31.60
2019-05-16T13:46:51.139Z,33.23
2019-05-16T13:49:22.209Z,36.28
2019-05-16T13:51:53.915Z,33.30
2019-05-16T13:54:26.945Z,33.60
2019-05-16T13:56:58.272Z,37.23
2019-05-16T13:59:29.047Z,38.30
2019-05-16T14:02:00.062Z,29.82
2019-05-16T14:04:31.566Z,31.97
2019-05-16T14:07:02.596Z,27.42
2019-05-16T14:09:33.666Z,27.50
2019-05-16T14:12:06.609Z,24.30
2019-05-16T14:14:41.465Z,25.27
2019-05-16T14:17:14.144Z,26.85
2019-05-16T14:19:41.779Z,25.88
2019-05-16T14:22:12.721Z,32.93
2019-05-16T14:24:43.633Z,23.25
2019-05-16T14:29:57.752Z,23.45
2019-05-16T14:32:29.029Z,25.17
2019-05-16T14:35:00.866Z,21.37
2019-05-16T14:37:31.981Z,19.27
2019-05-16T14:40:02.901Z,22.87
2019-05-16T14:42:33.991Z,24.02
2019-05-16T14:45:11.527Z,23.50
2019-05-16T14:47:38.040Z,27.22
2019-05-16T14:50:13.252Z,19.92
2019-05-16T14:52:41.622Z,18.42
2019-05-16T14:55:13.196Z,19.00
2019-05-16T14:57:44.263Z,18.65
2019-05-16T15:00:18.115Z,17.98
2019-05-16T15:02:48.225Z,19.10
2019-05-16T15:05:19.372Z,18.05
2019-05-16T15:07:50.310Z,18.35
2019-05-16T15:10:21.563Z,20.32
2019-05-16T15:12:52.419Z,19.82
2019-05-16T15:15:24.772Z,21.70
2019-05-16T15:17:56.800Z,20.17
2019-05-16T15:20:28.185Z,20.48
2019-05-16T15:22:59.256Z,22.37
2019-05-16T15:25:29.923Z,20.97
2019-05-16T15:28:01.197Z,20.60
2019-05-16T15:30:32.565Z,20.97
2019-05-16T15:33:03.514Z,22.10
2019-05-16T15:35:37.778Z,21.30
2019-05-16T15:38:08.734Z,22.98
2019-05-16T15:40:39.307Z,18.10
2019-05-16T15:43:10.392Z,23.67
2019-05-16T15:45:48.094Z,20.52
2019-05-16T15:48:17.269Z,20.88
2019-05-16T15:50:48.140Z,21.80
2019-05-16T15:53:19.167Z,22.85
2019-05-16T15:55:51.751Z,22.17
2019-05-16T15:58:23.069Z,22.35
2019-05-16T16:00:54.113Z,18.85
2019-05-16T16:03:27.203Z,22.55
2019-05-16T16:05:57.262Z,22.40
2019-05-16T16:08:28.503Z,25.10
2019-05-16T16:10:59.422Z,22.22
2019-05-16T16:13:30.247Z,26.25
2019-05-16T16:16:01.099Z,24.50
2019-05-16T16:18:32.112Z,22.52
2019-05-16T16:21:03.071Z,20.65
2019-05-16T16:23:34.091Z,20.08
2019-05-16T16:26:07.054Z,18.98
2019-05-16T16:28:38.093Z,19.42
2019-05-16T16:31:10.065Z,22.40
2019-05-16T16:33:42.083Z,18.02
2019-05-16T16:36:13.133Z,17.48
2019-05-16T16:38:44.201Z,19.12
2019-05-16T16:41:15.211Z,17.95
2019-05-16T16:43:47.712Z,19.23
2019-05-16T16:46:18.440Z,21.10
2019-05-16T16:48:49.168Z,20.25
2019-05-16T16:51:19.941Z,22.58
2019-05-16T16:53:50.939Z,18.50
2019-05-16T16:56:21.752Z,20.90
2019-05-16T16:58:52.888Z,19.85
2019-05-16T17:01:27.077Z,21.23
2019-05-16T17:03:57.507Z,18.20
2019-05-16T17:06:28.505Z,22.10
2019-05-16T17:09:18.484Z,17.05
2019-05-16T17:11:49.671Z,22.13
2019-05-16T17:14:20.532Z,20.20
2019-05-16T17:16:51.358Z,24.63
2019-05-16T17:19:22.388Z,20.27
2019-05-16T17:22:06.203Z,21.05
2019-05-16T17:24:27.253Z,21.60
2019-05-16T17:26:57.795Z,21.95
2019-05-16T17:29:28.711Z,23.45
2019-05-16T17:32:05.953Z,27.22
2019-05-16T17:34:32.177Z,25.17
2019-05-16T17:37:03.006Z,20.05
2019-05-16T17:39:33.746Z,22.95
2019-05-16T17:42:04.660Z,22.87
2019-05-16T17:44:36.422Z,23.18
2019-05-16T17:47:08.626Z,23.27
2019-05-16T17:49:39.464Z,23.98
2019-05-16T17:52:11.883Z,22.32
2019-05-16T17:54:42.739Z,23.90
2019-05-16T17:57:13.753Z,22.77
2019-05-16T17:59:44.573Z,26.12
2019-05-16T18:02:17.214Z,23.85
2019-05-16T18:04:48.049Z,24.57
2019-05-16T18:07:18.864Z,22.15
2019-05-16T18:09:49.794Z,21.50
2019-05-16T18:12:20.618Z,22.82
2019-05-16T18:14:51.459Z,21.75
2019-05-16T18:17:22.372Z,22.05
2019-05-16T18:19:53.117Z,24.35
2019-05-16T18:22:23.846Z,23.87
2019-05-16T18:24:54.757Z,22.77
2019-05-16T18:27:27.350Z,20.45
2019-05-16T18:29:57.867Z,21.80
2019-05-16T18:32:28.952Z,25.60
2019-05-16T18:34:59.876Z,23.62
2019-05-16T18:37:33.324Z,22.75
2019-05-16T18:40:02.937Z,19.07
2019-05-16T18:42:33.767Z,22.27
2019-05-16T18:45:07.134Z,21.73
2019-05-16T18:47:37.854Z,26.82
2019-05-16T18:50:10.875Z,25.30
2019-05-16T18:52:41.697Z,23.80
2019-05-16T18:55:12.831Z,23.25
2019-05-16T18:57:43.852Z,22.37
2019-05-16T19:00:17.579Z,23.75
2019-05-16T19:02:47.894Z,22.20
2019-05-16T19:05:19.355Z,28.15
2019-05-16T19:07:50.175Z,25.25
2019-05-16T19:10:21.306Z,25.32
2019-05-16T19:12:52.142Z,22.00
2019-05-16T19:15:26.613Z,26.68
2019-05-16T19:17:58.479Z,23.52
2019-05-16T19:20:28.733Z,21.82
2019-05-16T19:22:59.661Z,22.50
2019-05-16T19:25:30.383Z,21.93
2019-05-16T19:28:01.222Z,25.43
2019-05-16T19:30:32.145Z,22.42
2019-05-16T19:33:03.376Z,21.42
2019-05-16T19:35:34.204Z,21.30
2019-05-16T19:38:06.779Z,20.08
2019-05-16T19:40:40.284Z,18.10
2019-05-16T19:43:09.702Z,25.80
2019-05-16T19:45:40.526Z,19.52
2019-05-16T19:48:11.355Z,24.25
2019-05-16T19:50:42.402Z,21.52
2019-05-16T19:53:13.211Z,20.32
2019-05-16T19:55:44.146Z,21.42
2019-05-16T19:58:15.479Z,20.97
2019-05-16T20:00:46.611Z,22.10
2019-05-16T20:03:17.527Z,24.85
2019-05-16T20:05:48.963Z,26.45
2019-05-16T20:08:20.110Z,22.22
2019-05-16T20:10:51.927Z,27.87
2019-05-16T20:13:22.996Z,22.22
2019-05-16T20:15:53.875Z,22.42
2019-05-16T20:18:27.145Z,24.25
2019-05-16T20:20:57.040Z,22.60
2019-05-16T20:23:27.829Z,23.18
2019-05-16T20:25:58.694Z,24.20
2019-05-16T20:28:29.632Z,23.92
2019-05-16T20:31:00.450Z,26.52
2019-05-16T20:33:31.621Z,22.42
2019-05-16T20:36:02.646Z,23.55
2019-05-16T20:38:33.602Z,24.67
2019-05-16T20:41:04.591Z,25.08
2019-05-16T20:43:36.797Z,29.85
2019-05-16T20:46:08.134Z,21.10
2019-05-16T20:48:39.431Z,22.10
2019-05-16T20:51:10.454Z,30.90
2019-05-16T20:53:41.466Z,22.30
2019-05-16T20:56:12.948Z,28.45
2019-05-16T20:58:43.774Z,26.70
2019-05-16T21:01:14.605Z,25.48
2019-05-16T21:03:46.742Z,30.00
2019-05-16T21:06:17.978Z,31.87
2019-05-16T21:08:49.792Z,27.85
2019-05-16T21:11:21.930Z,27.02
2019-05-16T21:13:53.016Z,27.75
2019-05-16T21:16:23.788Z,28.40
2019-05-16T21:18:54.748Z,32.53
2019-05-16T21:21:27.390Z,30.20
2019-05-16T21:23:58.145Z,29.05
2019-05-16T21:26:29.174Z,27.07
2019-05-16T21:29:00.136Z,31.15
2019-05-16T21:31:31.099Z,30.27
2019-05-16T21:34:02.328Z,28.77
2019-05-16T21:36:33.379Z,30.12
2019-05-16T21:39:08.108Z,30.88
2019-05-16T21:41:37.518Z,25.88
2019-05-16T21:44:08.460Z,27.40
2019-05-16T21:46:39.405Z,30.08
2019-05-16T21:49:10.681Z,25.15
2019-05-16T21:51:41.722Z,27.40
2019-05-16T21:54:12.533Z,33.08
2019-05-16T21:56:43.398Z,28.38
2019-05-16T21:59:15.162Z,27.32
2019-05-16T22:01:47.274Z,30.30
2019-05-16T22:04:18.767Z,26.35
2019-05-16T22:06:49.831Z,26.82
2019-05-16T22:09:20.711Z,28.45
2019-05-16T22:11:51.643Z,31.05
2019-05-16T22:14:27.513Z,28.95
2019-05-16T22:16:57.713Z,27.55
2019-05-16T22:19:28.442Z,32.10
2019-05-16T22:21:59.368Z,30.32
2019-05-16T22:24:30.302Z,26.25
2019-05-16T22:27:01.259Z,25.05
2019-05-16T22:29:32.052Z,29.77
2019-05-16T22:32:03.140Z,27.02
2019-05-16T22:34:34.158Z,25.60
2019-05-16T22:37:06.533Z,28.98
2019-05-16T22:39:37.676Z,26.40
2019-05-16T22:42:09.388Z,30.45
2019-05-16T22:44:40.438Z,30.48
2019-05-16T22:47:11.263Z,30.70
2019-05-16T22:49:42.232Z,26.97
2019-05-16T22:52:13.268Z,28.45
2019-05-16T22:54:44.212Z,29.57
2019-05-16T22:57:17.413Z,26.12
2019-05-16T22:59:47.678Z,27.10
2019-05-16T23:02:18.798Z,24.43
2019-05-16T23:04:49.722Z,28.30
2019-05-16T23:07:20.784Z,24.80
2019-05-16T23:09:51.847Z,26.73
2019-05-16T23:12:22.656Z,25.50
2019-05-16T23:14:53.589Z,27.42
2019-05-16T23:17:26.652Z,28.10
2019-05-16T23:19:57.359Z,25.02
2019-05-16T23:22:28.177Z,28.10
2019-05-16T23:24:59.005Z,26.68
2019-05-16T23:27:30.119Z,27.50
2019-05-16T23:30:00.962Z,27.13
2019-05-16T23:32:32.024Z,27.58
2019-05-16T23:35:03.219Z,27.37
2019-05-16T23:37:34.094Z,25.52
2019-05-16T23:40:06.366Z,31.77
2019-05-16T23:42:37.451Z,25.80
2019-05-16T23:45:12.561Z,28.40
2019-05-16T23:47:43.517Z,25.12
2019-05-16T23:50:16.836Z,27.17
2019-05-16T23:52:47.305Z,24.30
2019-05-16T23:55:18.388Z,28.75
2019-05-16T23:57:49.404Z,24.20
